sensor_id;sensor_type;location;lat;lon;timestamp;P1;durP1;ratioP1;P2;durP2;ratioP2
6937;SDS011;40040;42.706;23.372;2023-06-14T00:02:14;10.50;;;7.65;;
6937;SDS011;40040;42.706;23.372;2023-06-14T00:04:41;10.00;;;8.15;;
6937;SDS011;40040;42.706;23.372;2023-06-14T00:07:08;8.70;;;7.80;;
6937;SDS011;40040;42.706;23.372;2023-06-14T00:09:35;9.18;;;7.95;;
6937;SDS011;40040;42.706;23.372;2023-06-14T00:12:02;8.68;;;7.72;;
6937;SDS011;40040;42.706;23.372;2023-06-14T00:14:29;10.02;;;7.50;;
6937;SDS011;40040;42.706;23.372;2023-06-14T00:16:57;8.23;;;7.43;;
6937;SDS011;40040;42.706;23.372;2023-06-14T00:19:24;8.35;;;7.43;;
6937;SDS011;40040;42.706;23.372;2023-06-14T00:21:51;7.97;;;6.90;;
6937;SDS011;40040;42.706;23.372;2023-06-14T00:24:18;8.05;;;7.25;;
6937;SDS011;40040;42.706;23.372;2023-06-14T00:26:45;8.00;;;6.88;;
6937;SDS011;40040;42.706;23.372;2023-06-14T00:29:12;13.38;;;7.47;;
6937;SDS011;40040;42.706;23.372;2023-06-14T00:31:39;8.73;;;7.20;;
6937;SDS011;40040;42.706;23.372;2023-06-14T00:34:07;7.90;;;7.05;;
6937;SDS011;40040;42.706;23.372;2023-06-14T00:36:34;8.65;;;6.90;;
6937;SDS011;40040;42.706;23.372;2023-06-14T00:39:01;10.10;;;6.63;;
6937;SDS011;40040;42.706;23.372;2023-06-14T00:41:28;9.85;;;7.60;;
6937;SDS011;40040;42.706;23.372;2023-06-14T00:43:55;8.02;;;6.72;;
6937;SDS011;40040;42.706;23.372;2023-06-14T00:46:22;7.03;;;6.20;;
6937;SDS011;40040;42.706;23.372;2023-06-14T00:48:49;7.95;;;7.07;;
6937;SDS011;40040;42.706;23.372;2023-06-14T00:51:18;7.00;;;6.22;;
6937;SDS011;40040;42.706;23.372;2023-06-14T00:53:45;7.05;;;6.32;;
6937;SDS011;40040;42.706;23.372;2023-06-14T00:56:13;6.72;;;6.07;;
6937;SDS011;40040;42.706;23.372;2023-06-14T00:58:40;6.47;;;5.80;;
6937;SDS011;40040;42.706;23.372;2023-06-14T01:01:07;6.63;;;6.03;;
6937;SDS011;40040;42.706;23.372;2023-06-14T01:03:34;6.72;;;6.05;;
6937;SDS011;40040;42.706;23.372;2023-06-14T01:06:03;6.97;;;6.18;;
6937;SDS011;40040;42.706;23.372;2023-06-14T01:08:43;6.57;;;5.97;;
6937;SDS011;40040;42.706;23.372;2023-06-14T01:11:18;9.23;;;6.13;;
6937;SDS011;40040;42.706;23.372;2023-06-14T01:13:51;7.00;;;6.07;;
6937;SDS011;40040;42.706;23.372;2023-06-14T01:16:19;6.35;;;5.75;;
6937;SDS011;40040;42.706;23.372;2023-06-14T01:18:46;7.70;;;6.32;;
6937;SDS011;40040;42.706;23.372;2023-06-14T01:21:22;6.90;;;6.28;;
6937;SDS011;40040;42.706;23.372;2023-06-14T01:23:51;8.57;;;6.75;;
6937;SDS011;40040;42.706;23.372;2023-06-14T01:26:20;10.35;;;6.20;;
6937;SDS011;40040;42.706;23.372;2023-06-14T01:28:47;8.20;;;6.38;;
6937;SDS011;40040;42.706;23.372;2023-06-14T01:31:18;8.00;;;6.45;;
6937;SDS011;40040;42.706;23.372;2023-06-14T01:33:47;9.13;;;6.63;;
6937;SDS011;40040;42.706;23.372;2023-06-14T01:36:16;9.73;;;6.90;;
6937;SDS011;40040;42.706;23.372;2023-06-14T01:38:44;7.50;;;6.70;;
6937;SDS011;40040;42.706;23.372;2023-06-14T01:41:14;7.15;;;6.43;;
6937;SDS011;40040;42.706;23.372;2023-06-14T01:43:42;6.90;;;6.30;;
6937;SDS011;40040;42.706;23.372;2023-06-14T01:46:09;6.95;;;6.25;;
6937;SDS011;40040;42.706;23.372;2023-06-14T01:48:37;7.55;;;6.63;;
6937;SDS011;40040;42.706;23.372;2023-06-14T01:51:03;7.63;;;6.53;;
6937;SDS011;40040;42.706;23.372;2023-06-14T01:53:30;8.02;;;6.63;;
6937;SDS011;40040;42.706;23.372;2023-06-14T01:55:57;8.02;;;6.72;;
6937;SDS011;40040;42.706;23.372;2023-06-14T01:58:25;8.43;;;6.53;;
6937;SDS011;40040;42.706;23.372;2023-06-14T02:00:52;8.00;;;6.80;;
6937;SDS011;40040;42.706;23.372;2023-06-14T02:03:20;8.52;;;6.30;;
6937;SDS011;40040;42.706;23.372;2023-06-14T02:05:48;8.68;;;6.50;;
6937;SDS011;40040;42.706;23.372;2023-06-14T02:08:15;7.50;;;6.25;;
6937;SDS011;40040;42.706;23.372;2023-06-14T02:10:42;9.20;;;6.88;;
6937;SDS011;40040;42.706;23.372;2023-06-14T02:13:08;7.53;;;6.18;;
6937;SDS011;40040;42.706;23.372;2023-06-14T02:15:37;8.80;;;6.57;;
6937;SDS011;40040;42.706;23.372;2023-06-14T02:18:04;8.13;;;6.68;;
6937;SDS011;40040;42.706;23.372;2023-06-14T02:20:31;8.15;;;6.20;;
6937;SDS011;40040;42.706;23.372;2023-06-14T02:22:57;6.78;;;6.18;;
6937;SDS011;40040;42.706;23.372;2023-06-14T02:25:24;6.43;;;5.82;;
6937;SDS011;40040;42.706;23.372;2023-06-14T02:27:53;6.63;;;6.00;;
6937;SDS011;40040;42.706;23.372;2023-06-14T02:30:20;7.90;;;6.38;;
6937;SDS011;40040;42.706;23.372;2023-06-14T02:32:48;7.35;;;6.00;;
6937;SDS011;40040;42.706;23.372;2023-06-14T02:35:16;8.07;;;6.22;;
6937;SDS011;40040;42.706;23.372;2023-06-14T02:37:43;7.93;;;6.97;;
6937;SDS011;40040;42.706;23.372;2023-06-14T02:40:10;8.95;;;7.32;;
6937;SDS011;40040;42.706;23.372;2023-06-14T02:42:37;9.45;;;7.60;;
6937;SDS011;40040;42.706;23.372;2023-06-14T02:45:05;11.35;;;8.13;;
6937;SDS011;40040;42.706;23.372;2023-06-14T02:47:32;10.52;;;8.10;;
6937;SDS011;40040;42.706;23.372;2023-06-14T02:50:01;10.30;;;8.15;;
6937;SDS011;40040;42.706;23.372;2023-06-14T02:52:28;9.52;;;8.18;;
6937;SDS011;40040;42.706;23.372;2023-06-14T02:54:55;8.10;;;7.38;;
6937;SDS011;40040;42.706;23.372;2023-06-14T02:57:22;7.97;;;7.28;;
6937;SDS011;40040;42.706;23.372;2023-06-14T02:59:49;7.22;;;6.57;;
6937;SDS011;40040;42.706;23.372;2023-06-14T03:02:17;6.78;;;6.15;;
6937;SDS011;40040;42.706;23.372;2023-06-14T03:04:44;7.72;;;6.40;;
6937;SDS011;40040;42.706;23.372;2023-06-14T03:07:13;7.03;;;6.32;;
6937;SDS011;40040;42.706;23.372;2023-06-14T03:09:44;7.15;;;6.55;;
6937;SDS011;40040;42.706;23.372;2023-06-14T03:12:11;8.50;;;6.00;;
6937;SDS011;40040;42.706;23.372;2023-06-14T03:14:38;7.30;;;6.63;;
6937;SDS011;40040;42.706;23.372;2023-06-14T03:17:05;6.70;;;6.20;;
6937;SDS011;40040;42.706;23.372;2023-06-14T03:19:33;7.35;;;6.65;;
6937;SDS011;40040;42.706;23.372;2023-06-14T03:22:00;7.25;;;6.47;;
6937;SDS011;40040;42.706;23.372;2023-06-14T03:24:29;8.02;;;6.65;;
6937;SDS011;40040;42.706;23.372;2023-06-14T03:27:01;7.57;;;6.50;;
6937;SDS011;40040;42.706;23.372;2023-06-14T03:29:28;7.32;;;6.63;;
6937;SDS011;40040;42.706;23.372;2023-06-14T03:31:56;8.23;;;6.72;;
6937;SDS011;40040;42.706;23.372;2023-06-14T03:34:24;7.57;;;6.93;;
6937;SDS011;40040;42.706;23.372;2023-06-14T03:36:51;9.10;;;6.93;;
6937;SDS011;40040;42.706;23.372;2023-06-14T03:39:18;9.15;;;7.15;;
6937;SDS011;40040;42.706;23.372;2023-06-14T03:41:46;8.18;;;6.75;;
6937;SDS011;40040;42.706;23.372;2023-06-14T03:44:14;9.27;;;7.22;;
6937;SDS011;40040;42.706;23.372;2023-06-14T03:46:41;7.68;;;6.85;;
6937;SDS011;40040;42.706;23.372;2023-06-14T03:49:08;7.32;;;6.63;;
6937;SDS011;40040;42.706;23.372;2023-06-14T03:51:35;8.23;;;6.95;;
6937;SDS011;40040;42.706;23.372;2023-06-14T03:54:02;8.35;;;7.10;;
6937;SDS011;40040;42.706;23.372;2023-06-14T03:56:29;7.80;;;7.00;;
6937;SDS011;40040;42.706;23.372;2023-06-14T03:58:57;8.80;;;7.95;;
6937;SDS011;40040;42.706;23.372;2023-06-14T04:01:24;9.60;;;8.20;;
6937;SDS011;40040;42.706;23.372;2023-06-14T04:03:52;8.60;;;7.70;;
6937;SDS011;40040;42.706;23.372;2023-06-14T04:06:19;8.88;;;7.13;;
6937;SDS011;40040;42.706;23.372;2023-06-14T04:08:46;10.35;;;7.40;;
6937;SDS011;40040;42.706;23.372;2023-06-14T04:11:14;7.93;;;7.22;;
6937;SDS011;40040;42.706;23.372;2023-06-14T04:13:41;10.35;;;7.47;;
6937;SDS011;40040;42.706;23.372;2023-06-14T04:16:09;9.75;;;7.20;;
6937;SDS011;40040;42.706;23.372;2023-06-14T04:18:36;8.38;;;7.57;;
6937;SDS011;40040;42.706;23.372;2023-06-14T04:21:03;10.45;;;8.32;;
6937;SDS011;40040;42.706;23.372;2023-06-14T04:23:31;12.82;;;9.30;;
6937;SDS011;40040;42.706;23.372;2023-06-14T04:25:58;11.70;;;9.13;;
6937;SDS011;40040;42.706;23.372;2023-06-14T04:28:27;12.40;;;8.70;;
6937;SDS011;40040;42.706;23.372;2023-06-14T04:30:55;11.27;;;8.63;;
6937;SDS011;40040;42.706;23.372;2023-06-14T04:33:23;9.18;;;8.18;;
6937;SDS011;40040;42.706;23.372;2023-06-14T04:35:50;9.57;;;7.38;;
6937;SDS011;40040;42.706;23.372;2023-06-14T04:38:19;8.27;;;7.38;;
6937;SDS011;40040;42.706;23.372;2023-06-14T04:40:50;8.90;;;7.90;;
6937;SDS011;40040;42.706;23.372;2023-06-14T04:43:18;8.32;;;7.50;;
6937;SDS011;40040;42.706;23.372;2023-06-14T04:45:52;9.75;;;8.70;;
6937;SDS011;40040;42.706;23.372;2023-06-14T04:48:21;8.63;;;7.82;;
6937;SDS011;40040;42.706;23.372;2023-06-14T04:50:49;8.52;;;7.72;;
6937;SDS011;40040;42.706;23.372;2023-06-14T04:53:18;11.70;;;8.38;;
6937;SDS011;40040;42.706;23.372;2023-06-14T04:55:48;11.35;;;9.07;;
6937;SDS011;40040;42.706;23.372;2023-06-14T04:58:15;9.98;;;8.13;;
6937;SDS011;40040;42.706;23.372;2023-06-14T05:00:42;11.70;;;8.82;;
6937;SDS011;40040;42.706;23.372;2023-06-14T05:03:09;9.35;;;8.38;;
6937;SDS011;40040;42.706;23.372;2023-06-14T05:05:38;10.15;;;8.45;;
6937;SDS011;40040;42.706;23.372;2023-06-14T05:08:07;11.70;;;8.82;;
6937;SDS011;40040;42.706;23.372;2023-06-14T05:10:34;10.18;;;8.30;;
6937;SDS011;40040;42.706;23.372;2023-06-14T05:13:02;9.10;;;8.05;;
6937;SDS011;40040;42.706;23.372;2023-06-14T05:15:29;9.65;;;8.40;;
6937;SDS011;40040;42.706;23.372;2023-06-14T05:17:55;10.68;;;9.00;;
6937;SDS011;40040;42.706;23.372;2023-06-14T05:20:22;11.27;;;8.98;;
6937;SDS011;40040;42.706;23.372;2023-06-14T05:22:51;10.20;;;9.18;;
6937;SDS011;40040;42.706;23.372;2023-06-14T05:25:20;10.80;;;8.93;;
6937;SDS011;40040;42.706;23.372;2023-06-14T05:27:47;13.18;;;9.43;;
6937;SDS011;40040;42.706;23.372;2023-06-14T05:30:14;15.32;;;9.15;;
6937;SDS011;40040;42.706;23.372;2023-06-14T05:32:42;13.00;;;8.98;;
6937;SDS011;40040;42.706;23.372;2023-06-14T05:35:08;10.05;;;8.77;;
6937;SDS011;40040;42.706;23.372;2023-06-14T05:37:36;10.40;;;9.27;;
6937;SDS011;40040;42.706;23.372;2023-06-14T05:40:03;14.63;;;10.38;;
6937;SDS011;40040;42.706;23.372;2023-06-14T05:42:33;11.35;;;9.82;;
6937;SDS011;40040;42.706;23.372;2023-06-14T05:45:00;18.05;;;10.95;;
6937;SDS011;40040;42.706;23.372;2023-06-14T05:47:27;14.10;;;10.60;;
6937;SDS011;40040;42.706;23.372;2023-06-14T05:49:53;14.85;;;11.77;;
6937;SDS011;40040;42.706;23.372;2023-06-14T05:52:21;12.48;;;10.52;;
6937;SDS011;40040;42.706;23.372;2023-06-14T05:54:47;12.23;;;10.40;;
6937;SDS011;40040;42.706;23.372;2023-06-14T05:57:14;12.13;;;10.93;;
6937;SDS011;40040;42.706;23.372;2023-06-14T05:59:43;14.13;;;11.88;;
6937;SDS011;40040;42.706;23.372;2023-06-14T06:02:10;16.02;;;12.05;;
6937;SDS011;40040;42.706;23.372;2023-06-14T06:04:36;15.98;;;12.63;;
6937;SDS011;40040;42.706;23.372;2023-06-14T06:07:03;17.35;;;13.90;;
6937;SDS011;40040;42.706;23.372;2023-06-14T06:09:31;19.85;;;14.38;;
6937;SDS011;40040;42.706;23.372;2023-06-14T06:11:57;18.38;;;15.00;;
6937;SDS011;40040;42.706;23.372;2023-06-14T06:14:24;17.33;;;14.52;;
6937;SDS011;40040;42.706;23.372;2023-06-14T06:16:53;17.70;;;14.23;;
6937;SDS011;40040;42.706;23.372;2023-06-14T06:19:20;19.23;;;14.73;;
6937;SDS011;40040;42.706;23.372;2023-06-14T06:21:47;17.00;;;14.77;;
6937;SDS011;40040;42.706;23.372;2023-06-14T06:24:14;17.90;;;14.95;;
6937;SDS011;40040;42.706;23.372;2023-06-14T06:26:41;17.38;;;14.18;;
6937;SDS011;40040;42.706;23.372;2023-06-14T06:29:07;17.50;;;14.80;;
6937;SDS011;40040;42.706;23.372;2023-06-14T06:31:34;18.85;;;15.15;;
6937;SDS011;40040;42.706;23.372;2023-06-14T06:34:02;18.90;;;15.10;;
6937;SDS011;40040;42.706;23.372;2023-06-14T06:36:29;18.50;;;14.95;;
6937;SDS011;40040;42.706;23.372;2023-06-14T06:38:56;20.00;;;15.48;;
6937;SDS011;40040;42.706;23.372;2023-06-14T06:41:23;21.65;;;15.27;;
6937;SDS011;40040;42.706;23.372;2023-06-14T06:43:49;20.63;;;15.00;;
6937;SDS011;40040;42.706;23.372;2023-06-14T06:46:16;20.48;;;15.15;;
6937;SDS011;40040;42.706;23.372;2023-06-14T06:48:44;19.27;;;15.57;;
6937;SDS011;40040;42.706;23.372;2023-06-14T06:51:12;18.75;;;15.35;;
6937;SDS011;40040;42.706;23.372;2023-06-14T06:53:41;21.55;;;16.00;;
6937;SDS011;40040;42.706;23.372;2023-06-14T06:56:09;23.02;;;16.30;;
6937;SDS011;40040;42.706;23.372;2023-06-14T06:58:35;17.95;;;15.07;;
6937;SDS011;40040;42.706;23.372;2023-06-14T07:01:02;18.15;;;14.70;;
6937;SDS011;40040;42.706;23.372;2023-06-14T07:03:29;19.92;;;16.00;;
6937;SDS011;40040;42.706;23.372;2023-06-14T07:05:56;21.55;;;16.08;;
6937;SDS011;40040;42.706;23.372;2023-06-14T07:08:24;19.67;;;15.45;;
6937;SDS011;40040;42.706;23.372;2023-06-14T07:10:52;25.10;;;15.57;;
6937;SDS011;40040;42.706;23.372;2023-06-14T07:13:18;22.48;;;15.98;;
6937;SDS011;40040;42.706;23.372;2023-06-14T07:15:45;18.38;;;15.70;;
6937;SDS011;40040;42.706;23.372;2023-06-14T07:18:12;20.48;;;16.42;;
6937;SDS011;40040;42.706;23.372;2023-06-14T07:20:39;20.58;;;15.20;;
6937;SDS011;40040;42.706;23.372;2023-06-14T07:23:07;19.42;;;15.38;;
6937;SDS011;40040;42.706;23.372;2023-06-14T07:25:36;20.25;;;15.85;;
6937;SDS011;40040;42.706;23.372;2023-06-14T07:28:03;20.30;;;15.60;;
6937;SDS011;40040;42.706;23.372;2023-06-14T07:30:30;16.95;;;14.57;;
6937;SDS011;40040;42.706;23.372;2023-06-14T07:32:56;15.73;;;14.02;;
6937;SDS011;40040;42.706;23.372;2023-06-14T07:35:23;15.65;;;13.55;;
6937;SDS011;40040;42.706;23.372;2023-06-14T07:37:50;17.45;;;14.20;;
6937;SDS011;40040;42.706;23.372;2023-06-14T07:40:17;19.65;;;13.48;;
6937;SDS011;40040;42.706;23.372;2023-06-14T07:42:46;18.50;;;13.85;;
6937;SDS011;40040;42.706;23.372;2023-06-14T07:45:13;15.43;;;12.73;;
6937;SDS011;40040;42.706;23.372;2023-06-14T07:47:40;15.02;;;13.43;;
6937;SDS011;40040;42.706;23.372;2023-06-14T07:50:07;12.60;;;11.30;;
6937;SDS011;40040;42.706;23.372;2023-06-14T07:52:35;15.23;;;12.52;;
6937;SDS011;40040;42.706;23.372;2023-06-14T07:55:01;15.20;;;12.35;;
6937;SDS011;40040;42.706;23.372;2023-06-14T07:57:28;15.70;;;12.50;;
6937;SDS011;40040;42.706;23.372;2023-06-14T07:59:57;13.95;;;11.65;;
6937;SDS011;40040;42.706;23.372;2023-06-14T08:02:24;12.15;;;10.95;;
6937;SDS011;40040;42.706;23.372;2023-06-14T08:04:50;13.35;;;11.90;;
6937;SDS011;40040;42.706;23.372;2023-06-14T08:07:17;12.20;;;10.88;;
6937;SDS011;40040;42.706;23.372;2023-06-14T08:09:45;11.63;;;10.35;;
6937;SDS011;40040;42.706;23.372;2023-06-14T08:12:11;12.30;;;10.50;;
6937;SDS011;40040;42.706;23.372;2023-06-14T08:14:39;12.38;;;11.13;;
6937;SDS011;40040;42.706;23.372;2023-06-14T08:17:07;12.00;;;10.80;;
6937;SDS011;40040;42.706;23.372;2023-06-14T08:19:34;12.65;;;11.10;;
6937;SDS011;40040;42.706;23.372;2023-06-14T08:22:01;11.40;;;10.30;;
6937;SDS011;40040;42.706;23.372;2023-06-14T08:24:28;13.15;;;11.68;;
6937;SDS011;40040;42.706;23.372;2023-06-14T08:26:55;12.68;;;11.38;;
6937;SDS011;40040;42.706;23.372;2023-06-14T08:29:22;12.95;;;10.68;;
6937;SDS011;40040;42.706;23.372;2023-06-14T08:31:49;11.27;;;9.57;;
6937;SDS011;40040;42.706;23.372;2023-06-14T08:34:17;10.10;;;9.15;;
6937;SDS011;40040;42.706;23.372;2023-06-14T08:36:45;10.38;;;9.38;;
6937;SDS011;40040;42.706;23.372;2023-06-14T08:39:11;10.55;;;9.15;;
6937;SDS011;40040;42.706;23.372;2023-06-14T08:41:38;10.88;;;9.80;;
6937;SDS011;40040;42.706;23.372;2023-06-14T08:44:05;11.57;;;10.38;;
6937;SDS011;40040;42.706;23.372;2023-06-14T08:46:32;11.43;;;10.32;;
6937;SDS011;40040;42.706;23.372;2023-06-14T08:49:00;12.00;;;10.77;;
6937;SDS011;40040;42.706;23.372;2023-06-14T08:51:29;11.80;;;10.23;;
6937;SDS011;40040;42.706;23.372;2023-06-14T08:53:59;11.13;;;9.95;;
6937;SDS011;40040;42.706;23.372;2023-06-14T08:56:26;11.20;;;10.10;;
6937;SDS011;40040;42.706;23.372;2023-06-14T08:58:54;11.32;;;10.23;;
6937;SDS011;40040;42.706;23.372;2023-06-14T09:01:22;12.65;;;11.40;;
6937;SDS011;40040;42.706;23.372;2023-06-14T09:03:50;12.27;;;10.52;;
6937;SDS011;40040;42.706;23.372;2023-06-14T09:06:17;12.18;;;10.07;;
6937;SDS011;40040;42.706;23.372;2023-06-14T09:08:46;11.70;;;10.50;;
6937;SDS011;40040;42.706;23.372;2023-06-14T09:11:14;12.07;;;9.90;;
6937;SDS011;40040;42.706;23.372;2023-06-14T09:13:44;10.57;;;9.57;;
6937;SDS011;40040;42.706;23.372;2023-06-14T09:16:11;10.18;;;9.13;;
6937;SDS011;40040;42.706;23.372;2023-06-14T09:18:39;10.45;;;9.55;;
6937;SDS011;40040;42.706;23.372;2023-06-14T09:21:08;11.18;;;10.07;;
6937;SDS011;40040;42.706;23.372;2023-06-14T09:23:36;11.57;;;10.48;;
6937;SDS011;40040;42.706;23.372;2023-06-14T09:26:08;12.02;;;10.82;;
6937;SDS011;40040;42.706;23.372;2023-06-14T09:28:36;10.60;;;9.50;;
6937;SDS011;40040;42.706;23.372;2023-06-14T09:31:07;10.70;;;9.57;;
6937;SDS011;40040;42.706;23.372;2023-06-14T09:33:35;10.23;;;9.23;;
6937;SDS011;40040;42.706;23.372;2023-06-14T09:36:02;10.50;;;9.50;;
6937;SDS011;40040;42.706;23.372;2023-06-14T09:38:29;10.50;;;9.38;;
6937;SDS011;40040;42.706;23.372;2023-06-14T09:40:57;10.68;;;9.57;;
6937;SDS011;40040;42.706;23.372;2023-06-14T09:43:26;11.05;;;9.75;;
6937;SDS011;40040;42.706;23.372;2023-06-14T09:45:54;10.45;;;9.35;;
6937;SDS011;40040;42.706;23.372;2023-06-14T09:48:21;10.27;;;9.23;;
6937;SDS011;40040;42.706;23.372;2023-06-14T09:50:49;10.65;;;9.48;;
6937;SDS011;40040;42.706;23.372;2023-06-14T09:53:16;10.48;;;9.48;;
6937;SDS011;40040;42.706;23.372;2023-06-14T09:55:48;10.55;;;9.45;;
6937;SDS011;40040;42.706;23.372;2023-06-14T09:58:16;10.23;;;9.23;;
6937;SDS011;40040;42.706;23.372;2023-06-14T10:00:47;11.38;;;10.27;;
6937;SDS011;40040;42.706;23.372;2023-06-14T10:03:21;10.90;;;9.82;;
6937;SDS011;40040;42.706;23.372;2023-06-14T10:05:51;9.88;;;8.93;;
6937;SDS011;40040;42.706;23.372;2023-06-14T10:08:19;10.13;;;9.13;;
6937;SDS011;40040;42.706;23.372;2023-06-14T10:10:52;9.68;;;8.77;;
6937;SDS011;40040;42.706;23.372;2023-06-14T10:13:21;9.88;;;8.98;;
6937;SDS011;40040;42.706;23.372;2023-06-14T10:15:52;10.25;;;9.32;;
6937;SDS011;40040;42.706;23.372;2023-06-14T10:18:28;10.55;;;9.55;;
6937;SDS011;40040;42.706;23.372;2023-06-14T10:21:03;9.55;;;8.55;;
6937;SDS011;40040;42.706;23.372;2023-06-14T10:23:36;10.98;;;9.00;;
6937;SDS011;40040;42.706;23.372;2023-06-14T10:26:06;9.60;;;8.80;;
6937;SDS011;40040;42.706;23.372;2023-06-14T10:28:33;9.35;;;8.43;;
6937;SDS011;40040;42.706;23.372;2023-06-14T10:31:08;9.35;;;8.45;;
6937;SDS011;40040;42.706;23.372;2023-06-14T10:33:36;10.00;;;9.10;;
6937;SDS011;40040;42.706;23.372;2023-06-14T10:38:57;10.38;;;9.10;;
6937;SDS011;40040;42.706;23.372;2023-06-14T10:41:24;9.80;;;8.82;;
6937;SDS011;40040;42.706;23.372;2023-06-14T10:44:06;9.70;;;8.90;;
6937;SDS011;40040;42.706;23.372;2023-06-14T10:46:59;9.93;;;9.02;;
6937;SDS011;40040;42.706;23.372;2023-06-14T10:49:40;9.55;;;8.45;;
6937;SDS011;40040;42.706;23.372;2023-06-14T10:52:09;10.10;;;9.07;;
6937;SDS011;40040;42.706;23.372;2023-06-14T10:55:00;9.68;;;8.73;;
6937;SDS011;40040;42.706;23.372;2023-06-14T10:57:31;9.95;;;8.93;;
6937;SDS011;40040;42.706;23.372;2023-06-14T10:59:59;11.80;;;9.98;;
6937;SDS011;40040;42.706;23.372;2023-06-14T11:02:45;10.43;;;9.07;;
6937;SDS011;40040;42.706;23.372;2023-06-14T11:05:23;9.40;;;8.60;;
6937;SDS011;40040;42.706;23.372;2023-06-14T11:10:50;9.48;;;8.60;;
6937;SDS011;40040;42.706;23.372;2023-06-14T11:13:20;9.18;;;8.30;;
6937;SDS011;40040;42.706;23.372;2023-06-14T11:15:51;9.18;;;8.38;;
6937;SDS011;40040;42.706;23.372;2023-06-14T11:18:21;10.57;;;8.82;;
6937;SDS011;40040;42.706;23.372;2023-06-14T11:20:50;9.23;;;8.43;;
6937;SDS011;40040;42.706;23.372;2023-06-14T11:23:16;8.95;;;8.15;;
6937;SDS011;40040;42.706;23.372;2023-06-14T11:25:43;8.80;;;8.10;;
6937;SDS011;40040;42.706;23.372;2023-06-14T11:28:15;8.60;;;7.90;;
6937;SDS011;40040;42.706;23.372;2023-06-14T11:30:42;8.90;;;8.20;;
6937;SDS011;40040;42.706;23.372;2023-06-14T11:33:09;9.25;;;8.38;;
6937;SDS011;40040;42.706;23.372;2023-06-14T11:35:38;13.10;;;8.00;;
6937;SDS011;40040;42.706;23.372;2023-06-14T11:38:05;9.10;;;8.30;;
6937;SDS011;40040;42.706;23.372;2023-06-14T11:40:32;9.20;;;8.30;;
6937;SDS011;40040;42.706;23.372;2023-06-14T11:42:59;9.07;;;8.27;;
6937;SDS011;40040;42.706;23.372;2023-06-14T11:45:26;9.48;;;8.68;;
6937;SDS011;40040;42.706;23.372;2023-06-14T11:47:54;10.32;;;8.77;;
6937;SDS011;40040;42.706;23.372;2023-06-14T11:50:22;8.90;;;8.15;;
6937;SDS011;40040;42.706;23.372;2023-06-14T11:52:53;9.13;;;8.25;;
6937;SDS011;40040;42.706;23.372;2023-06-14T11:55:21;9.32;;;8.40;;
6937;SDS011;40040;42.706;23.372;2023-06-14T11:57:48;8.65;;;7.95;;
6937;SDS011;40040;42.706;23.372;2023-06-14T12:00:15;8.35;;;7.65;;
6937;SDS011;40040;42.706;23.372;2023-06-14T12:02:42;8.85;;;8.05;;
6937;SDS011;40040;42.706;23.372;2023-06-14T12:05:20;8.98;;;8.27;;
6937;SDS011;40040;42.706;23.372;2023-06-14T12:07:47;8.82;;;8.13;;
6937;SDS011;40040;42.706;23.372;2023-06-14T12:10:16;8.63;;;7.82;;
6937;SDS011;40040;42.706;23.372;2023-06-14T12:12:43;8.20;;;7.50;;
6937;SDS011;40040;42.706;23.372;2023-06-14T12:15:10;8.07;;;7.47;;
6937;SDS011;40040;42.706;23.372;2023-06-14T12:17:38;8.77;;;7.70;;
6937;SDS011;40040;42.706;23.372;2023-06-14T12:20:07;8.43;;;7.72;;
6937;SDS011;40040;42.706;23.372;2023-06-14T12:22:39;8.55;;;7.30;;
6937;SDS011;40040;42.706;23.372;2023-06-14T12:25:24;7.93;;;7.32;;
6937;SDS011;40040;42.706;23.372;2023-06-14T12:27:53;7.05;;;6.55;;
6937;SDS011;40040;42.706;23.372;2023-06-14T12:30:20;7.43;;;6.82;;
6937;SDS011;40040;42.706;23.372;2023-06-14T12:32:47;7.65;;;7.05;;
6937;SDS011;40040;42.706;23.372;2023-06-14T12:35:16;7.47;;;6.88;;
6937;SDS011;40040;42.706;23.372;2023-06-14T12:37:45;7.10;;;6.57;;
6937;SDS011;40040;42.706;23.372;2023-06-14T12:40:12;7.80;;;7.00;;
6937;SDS011;40040;42.706;23.372;2023-06-14T12:42:40;7.70;;;7.00;;
6937;SDS011;40040;42.706;23.372;2023-06-14T12:45:08;8.00;;;7.28;;
6937;SDS011;40040;42.706;23.372;2023-06-14T12:47:36;7.40;;;6.80;;
6937;SDS011;40040;42.706;23.372;2023-06-14T12:50:03;10.15;;;7.43;;
6937;SDS011;40040;42.706;23.372;2023-06-14T12:52:31;8.55;;;6.40;;
6937;SDS011;40040;42.706;23.372;2023-06-14T12:55:01;7.10;;;6.50;;
6937;SDS011;40040;42.706;23.372;2023-06-14T12:57:28;7.35;;;6.60;;
6937;SDS011;40040;42.706;23.372;2023-06-14T12:59:56;7.22;;;6.57;;
6937;SDS011;40040;42.706;23.372;2023-06-14T13:02:23;7.43;;;6.72;;
6937;SDS011;40040;42.706;23.372;2023-06-14T13:04:50;6.25;;;5.72;;
6937;SDS011;40040;42.706;23.372;2023-06-14T13:07:17;6.63;;;6.03;;
6937;SDS011;40040;42.706;23.372;2023-06-14T13:09:44;6.97;;;6.38;;
6937;SDS011;40040;42.706;23.372;2023-06-14T13:12:11;6.55;;;5.82;;
6937;SDS011;40040;42.706;23.372;2023-06-14T13:14:38;6.65;;;6.00;;
6937;SDS011;40040;42.706;23.372;2023-06-14T13:17:09;6.72;;;6.13;;
6937;SDS011;40040;42.706;23.372;2023-06-14T13:19:36;6.68;;;6.05;;
6937;SDS011;40040;42.706;23.372;2023-06-14T13:22:03;7.80;;;7.10;;
6937;SDS011;40040;42.706;23.372;2023-06-14T13:24:30;9.35;;;7.45;;
6937;SDS011;40040;42.706;23.372;2023-06-14T13:26:57;10.77;;;7.90;;
6937;SDS011;40040;42.706;23.372;2023-06-14T13:29:24;9.73;;;8.18;;
6937;SDS011;40040;42.706;23.372;2023-06-14T13:31:53;10.15;;;7.82;;
6937;SDS011;40040;42.706;23.372;2023-06-14T13:34:22;8.63;;;7.32;;
6937;SDS011;40040;42.706;23.372;2023-06-14T13:36:49;8.77;;;7.93;;
6937;SDS011;40040;42.706;23.372;2023-06-14T13:39:16;9.48;;;8.02;;
6937;SDS011;40040;42.706;23.372;2023-06-14T13:41:43;8.70;;;7.90;;
6937;SDS011;40040;42.706;23.372;2023-06-14T13:44:09;10.73;;;8.60;;
6937;SDS011;40040;42.706;23.372;2023-06-14T13:46:39;9.52;;;8.63;;
6937;SDS011;40040;42.706;23.372;2023-06-14T13:49:07;9.25;;;7.97;;
6937;SDS011;40040;42.706;23.372;2023-06-14T13:51:36;9.82;;;7.70;;
6937;SDS011;40040;42.706;23.372;2023-06-14T13:54:03;10.20;;;9.10;;
6937;SDS011;40040;42.706;23.372;2023-06-14T13:56:30;10.15;;;8.60;;
6937;SDS011;40040;42.706;23.372;2023-06-14T13:58:57;9.70;;;8.07;;
6937;SDS011;40040;42.706;23.372;2023-06-14T14:01:24;9.07;;;8.18;;
6937;SDS011;40040;42.706;23.372;2023-06-14T14:03:53;9.15;;;8.20;;
6937;SDS011;40040;42.706;23.372;2023-06-14T14:06:20;8.45;;;7.57;;
6937;SDS011;40040;42.706;23.372;2023-06-14T14:08:48;8.63;;;7.68;;
6937;SDS011;40040;42.706;23.372;2023-06-14T14:11:16;9.23;;;8.32;;
6937;SDS011;40040;42.706;23.372;2023-06-14T14:13:43;9.25;;;8.30;;
6937;SDS011;40040;42.706;23.372;2023-06-14T14:16:10;8.82;;;7.93;;
6937;SDS011;40040;42.706;23.372;2023-06-14T14:18:37;11.00;;;7.50;;
6937;SDS011;40040;42.706;23.372;2023-06-14T14:21:04;9.43;;;8.15;;
6937;SDS011;40040;42.706;23.372;2023-06-14T14:23:31;10.40;;;7.50;;
6937;SDS011;40040;42.706;23.372;2023-06-14T14:25:59;7.90;;;7.10;;
6937;SDS011;40040;42.706;23.372;2023-06-14T14:28:29;9.98;;;7.20;;
6937;SDS011;40040;42.706;23.372;2023-06-14T14:30:55;8.65;;;7.50;;
6937;SDS011;40040;42.706;23.372;2023-06-14T14:33:22;7.47;;;6.78;;
6937;SDS011;40040;42.706;23.372;2023-06-14T14:35:50;7.15;;;6.45;;
6937;SDS011;40040;42.706;23.372;2023-06-14T14:38:17;6.75;;;6.07;;
6937;SDS011;40040;42.706;23.372;2023-06-14T14:40:44;8.02;;;6.10;;
6937;SDS011;40040;42.706;23.372;2023-06-14T14:43:12;6.80;;;6.18;;
6937;SDS011;40040;42.706;23.372;2023-06-14T14:45:39;7.18;;;6.47;;
6937;SDS011;40040;42.706;23.372;2023-06-14T14:48:06;8.07;;;5.55;;
6937;SDS011;40040;42.706;23.372;2023-06-14T14:50:33;6.47;;;5.60;;